Time;durP1;ratioP1;P1;durP2;ratioP2;P2;SDS_P1;SDS_P2;PMS_P1;PMS_P2;Temp;Humidity;BMP_temperature;BMP_pressure;BME280_temperature;BME280_humidity;BME280_pressure;Samples;Min_cycle;Max_cycle;Signal;HPM_P1;HPM_P2
2022/09/03 00:00:17;;;;;;;3.10;2.80;;;;;;;;;;5071821;28;20428;-77
2022/09/03 00:02:49;;;;;;;2.10;2.00;;;;;;;;;;5071681;28;20890;-76
2022/09/03 00:05:19;;;;;;;2.90;2.70;;;;;;;;;;5072162;28;20453;-77
2022/09/03 00:07:49;;;;;;;4.10;2.70;;;;;;;;;;5072513;28;20987;-76
2022/09/03 00:10:20;;;;;;;2.90;2.70;;;;;;;;;;5072078;28;20878;-78
2022/09/03 00:12:48;;;;;;;3.00;2.80;;;;;;;;;;5071729;28;20478;-77
2022/09/03 00:15:17;;;;;;;2.80;2.60;;;;;;;;;;5072292;28;20868;-76
2022/09/03 00:17:48;;;;;;;2.90;2.70;;;;;;;;;;5079281;28;20465;-77
2022/09/03 00:20:17;;;;;;;3.17;2.97;;;;;;;;;;5077206;28;20567;-76
2022/09/03 00:22:47;;;;;;;3.10;2.90;;;;;;;;;;5072756;28;20498;-77
2022/09/03 00:25:17;;;;;;;2.77;2.57;;;;;;;;;;5074182;28;20553;-77
2022/09/03 00:27:46;;;;;;;3.00;2.50;;;;;;;;;;5072187;28;20522;-76
2022/09/03 00:30:14;;;;;;;2.33;2.23;;;;;;;;;;5071813;28;20452;-77
2022/09/03 00:32:46;;;;;;;2.93;2.73;;;;;;;;;;5077134;28;20971;-77
2022/09/03 00:35:16;;;;;;;3.20;3.00;;;;;;;;;;5079308;28;20444;-77
2022/09/03 00:37:43;;;;;;;2.80;2.60;;;;;;;;;;5074099;28;20487;-76
2022/09/03 00:40:16;;;;;;;3.00;2.33;;;;;;;;;;5084520;28;20498;-77
2022/09/03 00:42:48;;;;;;;3.13;2.70;;;;;;;;;;5076509;28;20433;-76
2022/09/03 00:45:23;;;;;;;2.50;2.23;;;;;;;;;;5071612;28;20498;-77
2022/09/03 00:47:55;;;;;;;2.70;2.50;;;;;;;;;;5071681;28;20518;-76
2022/09/03 00:50:29;;;;;;;3.13;2.83;;;;;;;;;;5071950;28;20444;-77
2022/09/03 00:53:00;;;;;;;2.90;2.70;;;;;;;;;;5071953;28;20531;-77
2022/09/03 00:55:31;;;;;;;2.83;2.50;;;;;;;;;;5072347;28;20515;-76
2022/09/03 00:58:07;;;;;;;2.90;2.70;;;;;;;;;;5075334;28;20464;-76
2022/09/03 01:00:35;;;;;;;4.70;2.77;;;;;;;;;;5075074;28;20448;-78
2022/09/03 01:03:06;;;;;;;2.93;2.33;;;;;;;;;;5075738;28;20482;-79
2022/09/03 01:05:41;;;;;;;3.00;2.20;;;;;;;;;;5074616;28;20451;-77
2022/09/03 01:08:14;;;;;;;3.00;2.80;;;;;;;;;;5075288;28;20468;-77
2022/09/03 01:10:46;;;;;;;2.70;2.50;;;;;;;;;;5070206;28;20477;-77
2022/09/03 01:13:17;;;;;;;3.10;2.90;;;;;;;;;;5056069;28;20453;-77
2022/09/03 01:15:46;;;;;;;3.10;2.80;;;;;;;;;;5055043;28;20448;-76
2022/09/03 01:18:20;;;;;;;3.53;3.23;;;;;;;;;;5055103;28;20503;-77
2022/09/03 01:20:53;;;;;;;3.23;3.00;;;;;;;;;;5055417;28;20453;-76
2022/09/03 01:23:34;;;;;;;4.70;2.87;;;;;;;;;;5054734;28;20468;-77
2022/09/03 01:26:06;;;;;;;2.60;2.43;;;;;;;;;;5054923;28;20532;-77
2022/09/03 01:28:42;;;;;;;2.87;2.70;;;;;;;;;;5055306;28;20464;-77
2022/09/03 01:31:14;;;;;;;3.10;2.80;;;;;;;;;;5055058;28;20448;-76
2022/09/03 01:33:45;;;;;;;4.23;3.30;;;;;;;;;;5055325;28;20767;-77
2022/09/03 01:36:15;;;;;;;4.77;3.90;;;;;;;;;;5054786;28;20452;-77
2022/09/03 01:38:46;;;;;;;6.53;2.70;;;;;;;;;;5055042;28;20480;-77
2022/09/03 01:44:05;;;;;;;4.93;3.27;;;;;;;;;;5055704;28;20473;-76
2022/09/03 01:46:36;;;;;;;3.40;3.20;;;;;;;;;;5056958;28;21004;-76
2022/09/03 01:49:06;;;;;;;3.03;2.73;;;;;;;;;;5061516;28;20441;-77
2022/09/03 01:51:33;;;;;;;3.20;3.00;;;;;;;;;;5060984;28;20515;-77
2022/09/03 01:54:18;;;;;;;3.53;3.10;;;;;;;;;;5060743;28;20441;-77
2022/09/03 01:56:51;;;;;;;5.20;2.50;;;;;;;;;;5061165;28;20469;-77
2022/09/03 01:59:22;;;;;;;3.20;2.90;;;;;;;;;;5061245;28;20426;-77
2022/09/03 02:01:55;;;;;;;3.10;2.80;;;;;;;;;;5061447;28;20503;-78
2022/09/03 02:04:23;;;;;;;4.20;2.77;;;;;;;;;;5060172;28;20516;-77
2022/09/03 02:06:51;;;;;;;3.10;2.90;;;;;;;;;;5065600;28;20462;-76
2022/09/03 02:09:18;;;;;;;3.47;3.17;;;;;;;;;;5068007;28;20437;-76
2022/09/03 02:11:47;;;;;;;3.27;3.07;;;;;;;;;;5067246;28;20933;-76
2022/09/03 02:14:14;;;;;;;3.70;2.93;;;;;;;;;;5060373;28;20449;-77
2022/09/03 02:16:43;;;;;;;3.47;3.17;;;;;;;;;;5060913;28;20473;-77
2022/09/03 02:19:12;;;;;;;2.77;2.57;;;;;;;;;;5059873;28;20445;-76
2022/09/03 02:21:40;;;;;;;3.37;3.07;;;;;;;;;;5060634;28;20449;-78
2022/09/03 02:24:08;;;;;;;2.97;2.70;;;;;;;;;;5060147;28;20530;-77
2022/09/03 02:26:36;;;;;;;2.60;2.40;;;;;;;;;;5060064;28;20492;-76
2022/09/03 02:29:04;;;;;;;3.10;2.80;;;;;;;;;;5058298;28;20446;-76
2022/09/03 02:31:31;;;;;;;3.10;2.90;;;;;;;;;;5054102;28;20445;-77
2022/09/03 02:34:00;;;;;;;3.13;2.90;;;;;;;;;;5053359;28;20441;-77
2022/09/03 02:36:29;;;;;;;4.10;2.90;;;;;;;;;;5054633;28;20477;-77
2022/09/03 02:38:56;;;;;;;3.63;2.57;;;;;;;;;;5074378;28;20441;-77
2022/09/03 02:41:26;;;;;;;2.63;2.47;;;;;;;;;;5074295;28;20445;-77
2022/09/03 02:43:55;;;;;;;3.20;2.90;;;;;;;;;;5073940;28;20483;-78
2022/09/03 02:46:25;;;;;;;3.20;2.90;;;;;;;;;;5074050;28;20460;-76
2022/09/03 02:48:53;;;;;;;2.97;2.63;;;;;;;;;;5073905;28;20452;-78
2022/09/03 02:51:21;;;;;;;5.10;2.60;;;;;;;;;;5074415;28;20440;-77
2022/09/03 02:53:48;;;;;;;2.87;2.67;;;;;;;;;;5073219;28;20457;-77
2022/09/03 02:56:15;;;;;;;3.10;2.83;;;;;;;;;;5072845;28;20451;-77
2022/09/03 02:58:42;;;;;;;4.93;3.10;;;;;;;;;;5072732;28;20470;-77
2022/09/03 03:01:10;;;;;;;3.10;2.90;;;;;;;;;;5073498;28;20445;-75
2022/09/03 03:03:37;;;;;;;3.20;2.90;;;;;;;;;;5073282;28;20440;-78
2022/09/03 03:06:05;;;;;;;2.80;2.60;;;;;;;;;;5073758;28;20488;-77
2022/09/03 03:08:34;;;;;;;3.47;3.27;;;;;;;;;;5073332;28;20898;-77
2022/09/03 03:11:01;;;;;;;3.80;2.50;;;;;;;;;;5073773;28;20505;-77
2022/09/03 03:13:28;;;;;;;3.03;2.83;;;;;;;;;;5086443;28;20448;-76
2022/09/03 03:15:57;;;;;;;3.23;3.00;;;;;;;;;;5086765;28;20429;-77
2022/09/03 03:18:24;;;;;;;3.33;2.97;;;;;;;;;;5086687;28;20465;-76
2022/09/03 03:20:51;;;;;;;2.90;2.73;;;;;;;;;;5083330;28;20451;-77
2022/09/03 03:23:18;;;;;;;3.03;2.83;;;;;;;;;;5080617;28;20440;-78
2022/09/03 03:25:47;;;;;;;2.80;2.70;;;;;;;;;;5083055;28;20476;-77
2022/09/03 03:28:14;;;;;;;3.20;2.80;;;;;;;;;;5085436;28;20465;-76
2022/09/03 03:30:41;;;;;;;3.40;3.13;;;;;;;;;;5076809;28;21073;-77
2022/09/03 03:33:09;;;;;;;3.30;3.00;;;;;;;;;;5073309;28;20456;-78
2022/09/03 03:35:36;;;;;;;2.83;2.63;;;;;;;;;;5073928;28;20525;-77
2022/09/03 03:38:04;;;;;;;4.00;2.30;;;;;;;;;;5073026;28;20468;-78
2022/09/03 03:40:31;;;;;;;2.80;2.70;;;;;;;;;;5073354;28;20494;-76
2022/09/03 03:42:59;;;;;;;3.20;3.00;;;;;;;;;;5073716;28;20534;-77
2022/09/03 03:45:26;;;;;;;2.93;2.73;;;;;;;;;;5079499;28;20534;-77
2022/09/03 03:47:57;;;;;;;2.70;2.50;;;;;;;;;;5074069;28;20468;-76
2022/09/03 03:50:24;;;;;;;5.57;3.00;;;;;;;;;;5073302;28;20535;-77
2022/09/03 03:52:51;;;;;;;3.03;2.70;;;;;;;;;;5072460;28;20514;-76
2022/09/03 03:55:18;;;;;;;3.20;2.57;;;;;;;;;;5072615;28;20447;-76
2022/09/03 03:57:45;;;;;;;2.13;2.03;;;;;;;;;;5072343;28;20469;-76
2022/09/03 04:00:15;;;;;;;3.03;2.80;;;;;;;;;;5072774;28;20441;-77
2022/09/03 04:02:42;;;;;;;2.93;2.30;;;;;;;;;;5071769;28;20440;-77
2022/09/03 04:05:09;;;;;;;2.87;2.60;;;;;;;;;;5071680;28;20535;-77
2022/09/03 04:07:36;;;;;;;4.50;2.80;;;;;;;;;;5071710;28;20483;-77
2022/09/03 04:10:03;;;;;;;2.97;2.77;;;;;;;;;;5071662;28;20552;-76
2022/09/03 04:12:32;;;;;;;3.10;2.13;;;;;;;;;;5052348;28;20456;-76
2022/09/03 04:14:58;;;;;;;2.50;2.40;;;;;;;;;;5051658;28;20956;-75
2022/09/03 04:17:28;;;;;;;2.93;2.73;;;;;;;;;;5051598;28;20465;-76
2022/09/03 04:19:55;;;;;;;3.00;2.80;;;;;;;;;;5051883;28;20449;-75
2022/09/03 04:22:22;;;;;;;2.40;2.30;;;;;;;;;;5051986;28;20442;-77
2022/09/03 04:24:49;;;;;;;4.60;4.23;;;;;;;;;;5052044;28;20527;-76
2022/09/03 04:27:16;;;;;;;3.20;2.87;;;;;;;;;;5052201;28;20973;-77
2022/09/03 04:29:43;;;;;;;3.87;3.50;;;;;;;;;;5051816;28;20451;-77
2022/09/03 04:34:56;;;;;;;3.00;2.80;;;;;;;;;;5051093;28;20420;-76
2022/09/03 04:37:23;;;;;;;3.20;3.00;;;;;;;;;;5068519;28;20460;-78
2022/09/03 04:39:52;;;;;;;2.67;2.50;;;;;;;;;;5071031;28;20494;-77
2022/09/03 04:42:19;;;;;;;3.30;3.00;;;;;;;;;;5071111;28;20830;-78
2022/09/03 04:44:46;;;;;;;3.23;2.90;;;;;;;;;;5070807;28;20484;-77
2022/09/03 04:47:14;;;;;;;3.53;3.23;;;;;;;;;;5071376;28;20525;-76
2022/09/03 04:49:41;;;;;;;2.97;2.83;;;;;;;;;;5071627;28;20460;-78
2022/09/03 04:52:09;;;;;;;3.57;2.80;;;;;;;;;;5071162;28;20456;-77
2022/09/03 04:54:36;;;;;;;2.73;2.53;;;;;;;;;;5070699;28;20483;-80
2022/09/03 04:57:03;;;;;;;3.37;3.17;;;;;;;;;;5070577;28;20514;-77
2022/09/03 04:59:30;;;;;;;5.90;3.13;;;;;;;;;;5071300;28;20436;-77
2022/09/03 05:01:57;;;;;;;3.00;2.80;;;;;;;;;;5070861;28;20956;-75
2022/09/03 05:04:24;;;;;;;3.90;2.70;;;;;;;;;;5070093;28;20456;-76
2022/09/03 05:06:51;;;;;;;2.83;2.73;;;;;;;;;;5070275;28;20527;-77
2022/09/03 05:09:20;;;;;;;4.03;2.80;;;;;;;;;;5070882;28;20445;-77
2022/09/03 05:11:47;;;;;;;3.70;3.37;;;;;;;;;;5070807;28;20899;-75
2022/09/03 05:14:14;;;;;;;2.87;2.67;;;;;;;;;;5070277;28;20493;-75
2022/09/03 05:16:41;;;;;;;3.37;2.80;;;;;;;;;;5069984;28;20984;-76
2022/09/03 05:19:08;;;;;;;2.70;2.60;;;;;;;;;;5070561;28;20502;-76
2022/09/03 05:21:35;;;;;;;3.43;2.40;;;;;;;;;;5070413;28;20536;-76
2022/09/03 05:24:03;;;;;;;3.63;3.33;;;;;;;;;;5069895;28;20437;-77
2022/09/03 05:26:33;;;;;;;8.77;3.57;;;;;;;;;;5068207;28;20528;-77
2022/09/03 05:29:01;;;;;;;3.40;3.20;;;;;;;;;;5068417;28;20441;-75
2022/09/03 05:31:30;;;;;;;3.47;3.27;;;;;;;;;;5066261;28;20844;-76
2022/09/03 05:33:59;;;;;;;3.20;3.00;;;;;;;;;;5070009;28;20454;-76
2022/09/03 05:36:27;;;;;;;4.90;3.00;;;;;;;;;;5070327;28;20484;-77
2022/09/03 05:38:54;;;;;;;3.10;2.60;;;;;;;;;;5070977;28;20455;-76
2022/09/03 05:41:22;;;;;;;4.60;2.90;;;;;;;;;;5073887;28;20437;-77
2022/09/03 05:43:53;;;;;;;3.20;2.87;;;;;;;;;;5078954;28;20490;-76
2022/09/03 05:46:21;;;;;;;4.07;3.73;;;;;;;;;;5079296;28;20530;-76
2022/09/03 05:48:48;;;;;;;3.00;2.80;;;;;;;;;;5079839;28;20522;-77
2022/09/03 05:51:16;;;;;;;2.60;2.50;;;;;;;;;;5079996;28;20452;-77
2022/09/03 05:53:43;;;;;;;3.40;3.20;;;;;;;;;;5079142;28;20475;-76
2022/09/03 05:56:11;;;;;;;4.43;3.23;;;;;;;;;;5073459;28;20440;-75
2022/09/03 05:58:42;;;;;;;4.00;3.17;;;;;;;;;;5073584;28;20502;-76
2022/09/03 06:01:14;;;;;;;3.63;3.37;;;;;;;;;;5073539;28;20453;-77
2022/09/03 06:03:41;;;;;;;5.53;3.00;;;;;;;;;;5073443;28;20457;-76
2022/09/03 06:06:08;;;;;;;3.30;3.00;;;;;;;;;;5073142;28;20567;-77
2022/09/03 06:08:36;;;;;;;3.43;3.07;;;;;;;;;;5074654;28;20943;-77
2022/09/03 06:11:03;;;;;;;3.20;3.00;;;;;;;;;;5073960;28;20817;-75
2022/09/03 06:13:31;;;;;;;3.70;3.30;;;;;;;;;;5072937;28;21101;-76
2022/09/03 06:15:59;;;;;;;4.00;3.43;;;;;;;;;;5073316;28;20773;-77
2022/09/03 06:18:28;;;;;;;4.13;3.37;;;;;;;;;;5073738;28;20453;-76
2022/09/03 06:20:55;;;;;;;6.67;3.33;;;;;;;;;;5073413;28;20445;-76
2022/09/03 06:23:22;;;;;;;3.30;3.10;;;;;;;;;;5073125;28;20539;-77
2022/09/03 06:25:50;;;;;;;3.90;3.40;;;;;;;;;;5073737;28;20533;-76
2022/09/03 06:28:17;;;;;;;3.47;3.20;;;;;;;;;;5075560;28;20476;-77
2022/09/03 06:30:44;;;;;;;5.20;3.53;;;;;;;;;;5075298;28;20436;-77
2022/09/03 06:33:11;;;;;;;3.47;3.20;;;;;;;;;;5072964;28;20495;-77
2022/09/03 06:35:40;;;;;;;4.00;3.30;;;;;;;;;;5073009;28;20475;-76
2022/09/03 06:38:09;;;;;;;4.33;3.93;;;;;;;;;;5072483;28;20468;-76
2022/09/03 06:40:36;;;;;;;4.70;4.20;;;;;;;;;;5072754;28;21015;-77
2022/09/03 06:43:03;;;;;;;6.27;3.17;;;;;;;;;;5072313;28;20479;-76
2022/09/03 06:45:30;;;;;;;4.80;3.30;;;;;;;;;;5072380;28;20492;-77
2022/09/03 06:47:57;;;;;;;3.40;3.20;;;;;;;;;;5067784;28;20502;-77
2022/09/03 06:50:24;;;;;;;3.00;2.80;;;;;;;;;;5072947;28;20455;-77
2022/09/03 06:52:54;;;;;;;3.57;3.27;;;;;;;;;;5073307;28;20441;-77
2022/09/03 06:55:21;;;;;;;7.07;3.60;;;;;;;;;;5072250;28;20940;-77
2022/09/03 06:57:48;;;;;;;3.53;3.33;;;;;;;;;;5072609;28;20465;-76
2022/09/03 07:00:16;;;;;;;3.87;3.47;;;;;;;;;;5072329;28;20983;-78
2022/09/03 07:02:43;;;;;;;3.30;3.10;;;;;;;;;;5072343;28;20490;-76
2022/09/03 07:05:10;;;;;;;4.23;3.90;;;;;;;;;;5069386;28;21204;-78
2022/09/03 07:07:37;;;;;;;3.37;3.17;;;;;;;;;;5073012;28;20880;-77
2022/09/03 07:10:08;;;;;;;3.50;3.30;;;;;;;;;;5073172;28;20437;-77
2022/09/03 07:12:36;;;;;;;3.70;3.50;;;;;;;;;;5053329;28;20438;-77
2022/09/03 07:15:03;;;;;;;3.87;3.57;;;;;;;;;;5052873;28;20452;-76
2022/09/03 07:17:30;;;;;;;3.70;3.40;;;;;;;;;;5052964;28;20512;-77
2022/09/03 07:19:57;;;;;;;3.80;3.60;;;;;;;;;;5063898;28;20986;-76
2022/09/03 07:22:24;;;;;;;5.90;3.87;;;;;;;;;;5057618;28;20458;-76
2022/09/03 07:24:51;;;;;;;4.20;3.90;;;;;;;;;;5062617;28;20450;-79
2022/09/03 07:27:20;;;;;;;4.37;3.53;;;;;;;;;;5069542;28;20476;-78
2022/09/03 07:29:47;;;;;;;4.63;3.90;;;;;;;;;;5065023;28;20928;-77
2022/09/03 07:32:14;;;;;;;12.20;4.30;;;;;;;;;;5074709;28;20491;-77
2022/09/03 07:34:41;;;;;;;5.10;4.20;;;;;;;;;;5074925;28;21996;-77
2022/09/03 07:37:08;;;;;;;7.23;4.03;;;;;;;;;;5073794;28;20463;-78
2022/09/03 07:39:35;;;;;;;4.83;3.90;;;;;;;;;;5074328;28;20460;-77
2022/09/03 07:42:02;;;;;;;3.90;3.57;;;;;;;;;;5072624;28;20989;-77
2022/09/03 07:44:30;;;;;;;3.50;3.30;;;;;;;;;;5071970;28;20448;-77
2022/09/03 07:46:57;;;;;;;5.20;3.63;;;;;;;;;;5075653;28;20546;-78
2022/09/03 07:49:24;;;;;;;3.87;3.57;;;;;;;;;;5074990;28;21172;-78
2022/09/03 07:51:52;;;;;;;3.77;3.47;;;;;;;;;;5073743;28;20498;-77
2022/09/03 07:54:20;;;;;;;3.43;3.23;;;;;;;;;;5065826;28;20438;-77
2022/09/03 07:56:48;;;;;;;3.90;3.70;;;;;;;;;;5054975;28;20496;-78
2022/09/03 07:59:15;;;;;;;3.67;3.37;;;;;;;;;;5052918;28;20593;-77
2022/09/03 08:01:43;;;;;;;4.30;3.77;;;;;;;;;;5071205;28;20425;-78
2022/09/03 08:04:10;;;;;;;4.67;4.23;;;;;;;;;;5068628;28;20520;-77
2022/09/03 08:06:38;;;;;;;3.90;3.60;;;;;;;;;;5071612;28;20484;-77
2022/09/03 08:09:06;;;;;;;4.57;4.17;;;;;;;;;;5072167;28;20964;-77
2022/09/03 08:11:34;;;;;;;4.40;4.10;;;;;;;;;;5070828;28;20457;-78
2022/09/03 08:14:02;;;;;;;4.43;3.90;;;;;;;;;;5073018;28;21007;-78
2022/09/03 08:16:30;;;;;;;3.93;3.63;;;;;;;;;;5075307;28;20547;-77
2022/09/03 08:18:58;;;;;;;3.93;3.73;;;;;;;;;;5064878;28;20445;-77
2022/09/03 08:21:26;;;;;;;3.97;3.70;;;;;;;;;;5076802;28;20936;-77
2022/09/03 08:23:55;;;;;;;4.50;3.70;;;;;;;;;;5075948;28;20475;-77
2022/09/03 08:26:23;;;;;;;4.27;4.03;;;;;;;;;;5070145;28;20489;-77
2022/09/03 08:28:53;;;;;;;3.87;3.67;;;;;;;;;;5084648;28;20440;-77
2022/09/03 08:31:20;;;;;;;3.73;3.43;;;;;;;;;;5074900;28;20444;-78
2022/09/03 08:33:49;;;;;;;4.10;3.80;;;;;;;;;;5075455;28;20574;-77
2022/09/03 08:36:22;;;;;;;4.07;3.77;;;;;;;;;;5075154;28;20445;-77
2022/09/03 08:38:53;;;;;;;4.23;3.70;;;;;;;;;;5076356;28;20531;-77
2022/09/03 08:41:24;;;;;;;3.80;3.60;;;;;;;;;;5079038;28;20979;-77
2022/09/03 08:44:09;;;;;;;3.90;3.60;;;;;;;;;;5074076;28;20539;-78
2022/09/03 08:46:41;;;;;;;3.87;3.63;;;;;;;;;;5071041;28;20491;-78
2022/09/03 08:49:11;;;;;;;4.20;3.90;;;;;;;;;;5070656;28;20448;-77
2022/09/03 08:51:40;;;;;;;4.23;3.83;;;;;;;;;;5071848;28;20449;-75
2022/09/03 08:54:08;;;;;;;5.47;4.33;;;;;;;;;;5067788;28;20487;-76
2022/09/03 08:56:37;;;;;;;4.30;4.00;;;;;;;;;;5072783;28;20457;-75
2022/09/03 08:59:04;;;;;;;4.37;4.07;;;;;;;;;;5073195;28;20437;-77
2022/09/03 09:01:37;;;;;;;4.10;3.70;;;;;;;;;;5072712;28;20960;-77
2022/09/03 09:04:08;;;;;;;3.97;3.77;;;;;;;;;;5072870;28;20928;-77
2022/09/03 09:06:37;;;;;;;3.73;3.50;;;;;;;;;;5072578;28;20515;-78
2022/09/03 09:09:12;;;;;;;4.23;3.97;;;;;;;;;;5072944;28;20431;-77
2022/09/03 09:11:44;;;;;;;6.80;4.03;;;;;;;;;;5073751;28;20561;-79
2022/09/03 09:14:14;;;;;;;4.03;3.70;;;;;;;;;;5072532;28;20940;-77
2022/09/03 09:16:46;;;;;;;4.37;3.97;;;;;;;;;;5073241;28;20831;-78
2022/09/03 09:19:20;;;;;;;4.80;4.40;;;;;;;;;;5078670;28;20444;-78
2022/09/03 09:21:50;;;;;;;4.87;4.47;;;;;;;;;;5079612;28;20439;-79
2022/09/03 09:24:22;;;;;;;4.37;4.03;;;;;;;;;;5081392;28;20932;-78
2022/09/03 09:26:49;;;;;;;4.33;4.07;;;;;;;;;;5081225;28;20523;-78
2022/09/03 09:29:17;;;;;;;5.20;4.70;;;;;;;;;;5083090;28;20533;-76
2022/09/03 09:31:44;;;;;;;4.70;4.40;;;;;;;;;;5085390;28;20448;-77
2022/09/03 09:34:11;;;;;;;5.00;4.60;;;;;;;;;;5087315;28;20445;-78
2022/09/03 09:36:48;;;;;;;4.80;4.50;;;;;;;;;;5081936;28;20846;-78
2022/09/03 09:39:24;;;;;;;5.57;5.17;;;;;;;;;;5079690;28;20523;-78
2022/09/03 09:41:58;;;;;;;4.60;4.30;;;;;;;;;;5078066;28;20448;-77
2022/09/03 09:44:26;;;;;;;5.17;4.77;;;;;;;;;;5079340;28;20464;-77
2022/09/03 09:47:15;;;;;;;4.83;4.53;;;;;;;;;;5080772;28;20499;-78
2022/09/03 09:49:54;;;;;;;4.93;4.50;;;;;;;;;;5075769;28;20543;-77
2022/09/03 09:52:24;;;;;;;4.63;4.40;;;;;;;;;;5080727;28;20447;-76
2022/09/03 09:55:02;;;;;;;5.00;4.50;;;;;;;;;;5086782;28;20441;-77
2022/09/03 09:57:29;;;;;;;6.10;5.30;;;;;;;;;;5085634;28;20465;-74
2022/09/03 10:00:07;;;;;;;4.87;4.57;;;;;;;;;;5077564;28;20554;-77
2022/09/03 10:02:36;;;;;;;5.13;4.77;;;;;;;;;;5073738;28;20506;-77
2022/09/03 10:05:12;;;;;;;4.40;4.10;;;;;;;;;;5074483;28;20457;-78
2022/09/03 10:07:40;;;;;;;5.10;4.77;;;;;;;;;;5075059;28;20488;-76
2022/09/03 10:10:14;;;;;;;4.60;4.30;;;;;;;;;;5075990;28;20462;-76
2022/09/03 10:12:43;;;;;;;4.97;4.57;;;;;;;;;;5052849;28;20451;-76
2022/09/03 10:15:20;;;;;;;4.93;4.63;;;;;;;;;;5053092;28;20933;-76
2022/09/03 10:17:53;;;;;;;5.40;5.00;;;;;;;;;;5055956;28;20980;-78
2022/09/03 10:20:30;;;;;;;5.00;4.50;;;;;;;;;;5056657;28;20945;-78
2022/09/03 10:22:58;;;;;;;4.80;4.50;;;;;;;;;;5054042;28;20956;-76
2022/09/03 10:25:28;;;;;;;4.83;4.53;;;;;;;;;;5055064;28;20437;-77
2022/09/03 10:28:00;;;;;;;5.10;4.70;;;;;;;;;;5051824;28;20825;-76
2022/09/03 10:30:29;;;;;;;4.07;3.87;;;;;;;;;;5058117;28;20453;-77
2022/09/03 10:33:02;;;;;;;4.63;4.23;;;;;;;;;;5066003;28;20441;-77
2022/09/03 10:35:30;;;;;;;4.73;4.43;;;;;;;;;;5068955;28;20447;-75
2022/09/03 10:38:05;;;;;;;4.10;3.80;;;;;;;;;;5065356;28;20487;-74
2022/09/03 10:40:37;;;;;;;5.07;4.57;;;;;;;;;;5064358;28;20453;-76
2022/09/03 10:43:10;;;;;;;4.43;4.13;;;;;;;;;;5057913;28;20454;-76
2022/09/03 10:45:40;;;;;;;4.43;4.13;;;;;;;;;;5053712;28;20445;-77
2022/09/03 10:48:14;;;;;;;3.90;3.60;;;;;;;;;;5053324;28;20566;-75
2022/09/03 10:50:47;;;;;;;4.53;4.13;;;;;;;;;;5053483;28;20812;-76
2022/09/03 10:53:19;;;;;;;5.20;4.03;;;;;;;;;;5052615;28;20532;-76
2022/09/03 10:55:50;;;;;;;4.90;4.60;;;;;;;;;;5053815;28;20539;-75
2022/09/03 10:58:27;;;;;;;5.30;4.23;;;;;;;;;;5052553;28;20523;-77
2022/09/03 11:00:56;;;;;;;3.77;3.57;;;;;;;;;;5052690;28;20822;-76
2022/09/03 11:03:37;;;;;;;4.67;4.27;;;;;;;;;;5052700;28;20445;-76
2022/09/03 11:06:07;;;;;;;4.80;4.40;;;;;;;;;;5052658;28;20544;-77
2022/09/03 11:08:37;;;;;;;4.30;3.53;;;;;;;;;;5052616;28;20477;-76
2022/09/03 11:11:10;;;;;;;3.90;3.63;;;;;;;;;;5055321;28;20437;-75
2022/09/03 11:13:40;;;;;;;4.50;4.20;;;;;;;;;;5053113;28;20525;-77
2022/09/03 11:16:10;;;;;;;4.20;3.90;;;;;;;;;;5052438;28;20449;-78
2022/09/03 11:18:41;;;;;;;5.03;4.63;;;;;;;;;;5053239;28;20457;-78
2022/09/03 11:21:10;;;;;;;5.03;4.63;;;;;;;;;;5052263;28;20449;-76
2022/09/03 11:23:39;;;;;;;7.10;4.40;;;;;;;;;;5051981;28;20503;-77
2022/09/03 11:26:11;;;;;;;4.90;4.50;;;;;;;;;;5051607;28;20450;-77
2022/09/03 11:28:41;;;;;;;7.73;4.70;;;;;;;;;;5052859;28;20485;-76
2022/09/03 11:31:17;;;;;;;5.00;4.60;;;;;;;;;;5051926;28;20608;-80
2022/09/03 11:33:48;;;;;;;4.47;4.10;;;;;;;;;;5051116;28;20446;-77
2022/09/03 11:36:21;;;;;;;4.27;4.03;;;;;;;;;;5051731;28;20441;-75
2022/09/03 11:38:48;;;;;;;4.13;3.83;;;;;;;;;;5051544;28;20438;-75
2022/09/03 11:41:25;;;;;;;4.90;4.53;;;;;;;;;;5051489;28;20460;-76
2022/09/03 11:43:52;;;;;;;4.37;3.97;;;;;;;;;;5051103;28;20453;-76
2022/09/03 11:46:28;;;;;;;4.17;3.87;;;;;;;;;;5051254;28;20453;-75
2022/09/03 11:48:56;;;;;;;4.63;4.30;;;;;;;;;;5051331;28;20484;-76
2022/09/03 11:51:34;;;;;;;4.43;4.13;;;;;;;;;;5053364;28;20442;-77
2022/09/03 11:54:02;;;;;;;6.57;4.90;;;;;;;;;;5052032;28;20540;-77
2022/09/03 11:56:31;;;;;;;4.60;4.20;;;;;;;;;;5053239;28;20473;-77
2022/09/03 11:59:01;;;;;;;4.23;3.97;;;;;;;;;;5052132;28;20450;-77
2022/09/03 12:01:28;;;;;;;4.93;4.53;;;;;;;;;;5052466;28;20515;-76
2022/09/03 12:03:58;;;;;;;4.43;4.13;;;;;;;;;;5051258;28;21019;-78
2022/09/03 12:06:36;;;;;;;5.03;4.50;;;;;;;;;;5053033;28;20507;-76
2022/09/03 12:09:15;;;;;;;4.40;4.10;;;;;;;;;;5052412;28;20437;-77
2022/09/03 12:11:49;;;;;;;4.33;4.13;;;;;;;;;;5051655;28;20433;-77
2022/09/03 12:14:20;;;;;;;4.80;4.50;;;;;;;;;;5051156;28;20468;-76
2022/09/03 12:16:55;;;;;;;4.43;4.13;;;;;;;;;;5051262;28;20461;-75
2022/09/03 12:19:32;;;;;;;4.80;4.50;;;;;;;;;;5051103;28;20955;-77
2022/09/03 12:22:02;;;;;;;4.67;4.27;;;;;;;;;;5051616;28;20801;-76
2022/09/03 12:24:34;;;;;;;5.33;4.90;;;;;;;;;;5051102;28;20559;-76
2022/09/03 12:27:02;;;;;;;5.23;4.83;;;;;;;;;;5051133;28;20465;-77
2022/09/03 12:29:31;;;;;;;4.57;4.27;;;;;;;;;;5052336;28;20499;-75
2022/09/03 12:32:06;;;;;;;4.97;4.47;;;;;;;;;;5051675;28;20500;-76
2022/09/03 12:34:33;;;;;;;4.90;4.60;;;;;;;;;;5052784;28;20531;-75
2022/09/03 12:37:00;;;;;;;3.80;3.60;;;;;;;;;;5054979;28;20465;-76
2022/09/03 12:39:28;;;;;;;4.07;3.80;;;;;;;;;;5060559;28;20445;-76
2022/09/03 12:41:57;;;;;;;3.67;3.37;;;;;;;;;;5055752;28;20481;-76
2022/09/03 12:44:28;;;;;;;4.53;3.93;;;;;;;;;;5051176;28;20526;-75
2022/09/03 12:47:01;;;;;;;4.33;3.57;;;;;;;;;;5051970;28;20929;-76
2022/09/03 12:49:28;;;;;;;3.17;2.97;;;;;;;;;;5051664;28;20524;-75
2022/09/03 12:52:01;;;;;;;3.57;3.37;;;;;;;;;;5053021;28;20457;-76
2022/09/03 12:54:29;;;;;;;3.13;2.93;;;;;;;;;;5055163;28;20445;-76
2022/09/03 12:56:58;;;;;;;3.07;2.87;;;;;;;;;;5055851;28;20465;-76
2022/09/03 12:59:29;;;;;;;4.60;3.10;;;;;;;;;;5058916;28;20467;-76
2022/09/03 13:01:59;;;;;;;2.80;2.60;;;;;;;;;;5062756;28;20459;-76
2022/09/03 13:04:28;;;;;;;3.97;2.13;;;;;;;;;;5059809;28;20496;-77
2022/09/03 13:06:57;;;;;;;2.80;2.60;;;;;;;;;;5055442;28;20973;-76
2022/09/03 13:09:25;;;;;;;3.47;2.77;;;;;;;;;;5054448;28;20465;-77
2022/09/03 13:11:54;;;;;;;3.00;2.80;;;;;;;;;;5054611;28;20449;-76
2022/09/03 13:14:21;;;;;;;2.90;2.70;;;;;;;;;;5054388;28;20453;-75
2022/09/03 13:17:09;;;;;;;5.60;2.93;;;;;;;;;;5055733;28;20469;-77
2022/09/03 13:19:41;;;;;;;2.90;2.47;;;;;;;;;;5055858;28;20866;-76
2022/09/03 13:22:15;;;;;;;3.63;2.73;;;;;;;;;;5054861;28;20454;-77
2022/09/03 13:25:03;;;;;;;3.00;2.47;;;;;;;;;;5054901;28;20552;-76
2022/09/03 13:27:33;;;;;;;4.57;2.80;;;;;;;;;;5049663;28;20909;-76
2022/09/03 13:30:05;;;;;;;3.07;2.67;;;;;;;;;;5054202;28;20441;-78
2022/09/03 13:32:40;;;;;;;2.60;2.50;;;;;;;;;;5053590;28;20453;-76
2022/09/03 13:35:09;;;;;;;3.33;3.03;;;;;;;;;;5053933;28;20446;-76
2022/09/03 13:37:39;;;;;;;3.67;2.90;;;;;;;;;;5053895;28;20470;-78
2022/09/03 13:40:14;;;;;;;5.67;3.47;;;;;;;;;;5054023;28;20510;-77
2022/09/03 13:42:44;;;;;;;2.83;2.63;;;;;;;;;;5053600;28;20448;-77
2022/09/03 13:45:15;;;;;;;3.43;2.57;;;;;;;;;;5054016;28;20513;-77
2022/09/03 13:50:27;;;;;;;3.83;2.80;;;;;;;;;;5053923;28;20936;-77
2022/09/03 13:52:58;;;;;;;2.90;2.70;;;;;;;;;;5054104;28;20673;-76
2022/09/03 13:55:27;;;;;;;3.53;3.20;;;;;;;;;;5054034;28;20522;-76
2022/09/03 13:57:57;;;;;;;2.73;2.00;;;;;;;;;;5053974;28;20470;-76
2022/09/03 14:00:27;;;;;;;4.60;2.67;;;;;;;;;;5053575;28;20515;-77
2022/09/03 14:02:57;;;;;;;3.00;2.70;;;;;;;;;;5052027;28;20453;-77
2022/09/03 14:05:35;;;;;;;3.53;2.70;;;;;;;;;;5053211;28;20453;-77
2022/09/03 14:08:07;;;;;;;3.40;3.10;;;;;;;;;;5052836;28;20489;-77
2022/09/03 14:10:39;;;;;;;3.13;2.53;;;;;;;;;;5054958;28;20453;-77
2022/09/03 14:13:11;;;;;;;2.10;2.00;;;;;;;;;;5055544;28;20567;-76
2022/09/03 14:15:42;;;;;;;3.50;2.40;;;;;;;;;;5056064;28;20480;-75
2022/09/03 14:18:15;;;;;;;2.90;2.60;;;;;;;;;;5054492;28;20457;-77
2022/09/03 14:20:45;;;;;;;2.40;2.13;;;;;;;;;;5054406;28;20437;-76
2022/09/03 14:23:22;;;;;;;2.63;2.43;;;;;;;;;;5054438;28;20929;-77
2022/09/03 14:25:53;;;;;;;2.00;1.90;;;;;;;;;;5053340;28;20453;-75
2022/09/03 14:28:27;;;;;;;2.13;2.03;;;;;;;;;;5053214;28;20564;-78
2022/09/03 14:30:59;;;;;;;2.00;1.83;;;;;;;;;;5053129;28;20430;-76
2022/09/03 14:33:34;;;;;;;2.40;2.20;;;;;;;;;;5052808;28;20982;-77
2022/09/03 14:36:07;;;;;;;2.63;1.87;;;;;;;;;;5053383;28;20502;-76
2022/09/03 14:38:46;;;;;;;2.47;1.50;;;;;;;;;;5053120;28;20438;-77
2022/09/03 14:41:32;;;;;;;1.70;1.60;;;;;;;;;;5052957;28;20449;-75
2022/09/03 14:44:05;;;;;;;1.57;1.47;;;;;;;;;;5052739;28;20487;-76
2022/09/03 14:46:41;;;;;;;2.40;1.80;;;;;;;;;;5052804;28;20469;-75
2022/09/03 14:49:18;;;;;;;4.60;1.77;;;;;;;;;;5055176;28;20507;-76
2022/09/03 14:51:51;;;;;;;1.80;1.70;;;;;;;;;;5055497;28;20445;-77
2022/09/03 14:54:28;;;;;;;1.80;1.70;;;;;;;;;;5054132;28;20437;-75
2022/09/03 14:57:00;;;;;;;4.10;1.70;;;;;;;;;;5052526;28;20457;-75
2022/09/03 14:59:35;;;;;;;2.23;2.03;;;;;;;;;;5052777;28;20499;-75
2022/09/03 15:02:14;;;;;;;3.40;2.20;;;;;;;;;;5052185;28;20429;-76
2022/09/03 15:04:56;;;;;;;2.40;2.20;;;;;;;;;;5052289;28;20453;-76
2022/09/03 15:07:27;;;;;;;2.00;1.90;;;;;;;;;;5052122;28;20902;-74